sensor_id;sensor_type;location;lat;lon;timestamp;P1;durP1;ratioP1;P2;durP2;ratioP2
5678;SDS011;2862;52.560;13.566;2022-10-22T00:08:16;85.60;;;31.77;;
5678;SDS011;2862;52.560;13.566;2022-10-22T00:18:19;85.27;;;31.50;;
5678;SDS011;2862;52.560;13.566;2022-10-22T00:28:23;81.30;;;29.67;;
5678;SDS011;2862;52.560;13.566;2022-10-22T00:38:26;85.00;;;30.40;;
5678;SDS011;2862;52.560;13.566;2022-10-22T00:48:30;78.87;;;30.73;;
5678;SDS011;2862;52.560;13.566;2022-10-22T00:58:35;79.30;;;30.50;;
5678;SDS011;2862;52.560;13.566;2022-10-22T01:08:45;79.20;;;28.77;;
5678;SDS011;2862;52.560;13.566;2022-10-22T01:18:58;75.77;;;29.53;;
5678;SDS011;2862;52.560;13.566;2022-10-22T01:29:14;97.63;;;32.20;;
5678;SDS011;2862;52.560;13.566;2022-10-22T01:39:21;93.23;;;32.13;;
5678;SDS011;2862;52.560;13.566;2022-10-22T01:49:29;88.50;;;34.57;;
5678;SDS011;2862;52.560;13.566;2022-10-22T01:59:44;82.60;;;29.07;;
5678;SDS011;2862;52.560;13.566;2022-10-22T02:09:56;77.43;;;28.93;;
5678;SDS011;2862;52.560;13.566;2022-10-22T02:20:02;81.10;;;27.20;;
5678;SDS011;2862;52.560;13.566;2022-10-22T02:30:11;74.73;;;27.40;;
5678;SDS011;2862;52.560;13.566;2022-10-22T02:40:22;74.53;;;27.43;;
5678;SDS011;2862;52.560;13.566;2022-10-22T02:50:27;74.93;;;27.90;;
5678;SDS011;2862;52.560;13.566;2022-10-22T03:00:30;80.97;;;27.10;;
5678;SDS011;2862;52.560;13.566;2022-10-22T03:10:34;71.47;;;26.67;;
5678;SDS011;2862;52.560;13.566;2022-10-22T03:20:37;65.13;;;23.47;;
5678;SDS011;2862;52.560;13.566;2022-10-22T03:30:41;76.90;;;24.20;;
5678;SDS011;2862;52.560;13.566;2022-10-22T03:40:44;66.93;;;25.77;;
5678;SDS011;2862;52.560;13.566;2022-10-22T03:50:49;69.13;;;24.27;;
5678;SDS011;2862;52.560;13.566;2022-10-22T04:00:52;65.77;;;23.87;;
5678;SDS011;2862;52.560;13.566;2022-10-22T04:10:56;68.70;;;25.37;;
5678;SDS011;2862;52.560;13.566;2022-10-22T04:20:59;64.00;;;24.37;;
5678;SDS011;2862;52.560;13.566;2022-10-22T04:31:07;61.40;;;24.27;;
5678;SDS011;2862;52.560;13.566;2022-10-22T04:41:12;63.77;;;24.07;;
5678;SDS011;2862;52.560;13.566;2022-10-22T04:51:18;68.07;;;26.10;;
5678;SDS011;2862;52.560;13.566;2022-10-22T05:01:22;65.83;;;26.20;;
5678;SDS011;2862;52.560;13.566;2022-10-22T05:11:29;66.53;;;26.97;;
5678;SDS011;2862;52.560;13.566;2022-10-22T05:21:34;66.40;;;25.70;;
5678;SDS011;2862;52.560;13.566;2022-10-22T05:31:40;71.90;;;25.10;;
5678;SDS011;2862;52.560;13.566;2022-10-22T05:41:43;60.73;;;23.70;;
5678;SDS011;2862;52.560;13.566;2022-10-22T05:51:47;69.17;;;24.67;;
5678;SDS011;2862;52.560;13.566;2022-10-22T06:01:50;69.30;;;26.43;;
5678;SDS011;2862;52.560;13.566;2022-10-22T06:11:55;83.57;;;34.40;;
5678;SDS011;2862;52.560;13.566;2022-10-22T06:21:59;65.97;;;25.43;;
5678;SDS011;2862;52.560;13.566;2022-10-22T06:32:03;74.33;;;26.53;;
5678;SDS011;2862;52.560;13.566;2022-10-22T06:42:06;47.33;;;17.37;;
5678;SDS011;2862;52.560;13.566;2022-10-22T06:52:23;57.27;;;25.30;;
5678;SDS011;2862;52.560;13.566;2022-10-22T07:03:10;50.23;;;22.10;;
5678;SDS011;2862;52.560;13.566;2022-10-22T07:13:15;61.13;;;28.57;;
5678;SDS011;2862;52.560;13.566;2022-10-22T07:23:18;55.87;;;23.67;;
5678;SDS011;2862;52.560;13.566;2022-10-22T07:33:22;46.50;;;20.67;;
5678;SDS011;2862;52.560;13.566;2022-10-22T07:43:25;47.30;;;21.57;;
5678;SDS011;2862;52.560;13.566;2022-10-22T07:53:30;52.97;;;23.73;;
5678;SDS011;2862;52.560;13.566;2022-10-22T08:03:33;58.27;;;28.37;;
5678;SDS011;2862;52.560;13.566;2022-10-22T08:13:37;58.37;;;27.10;;
5678;SDS011;2862;52.560;13.566;2022-10-22T08:23:43;52.70;;;23.20;;
5678;SDS011;2862;52.560;13.566;2022-10-22T08:33:46;49.77;;;22.30;;
5678;SDS011;2862;52.560;13.566;2022-10-22T08:44:05;46.83;;;20.43;;
5678;SDS011;2862;52.560;13.566;2022-10-22T08:54:25;76.47;;;36.50;;
5678;SDS011;2862;52.560;13.566;2022-10-22T09:04:35;48.43;;;22.43;;
5678;SDS011;2862;52.560;13.566;2022-10-22T09:14:48;63.10;;;29.13;;
5678;SDS011;2862;52.560;13.566;2022-10-22T09:24:53;59.90;;;27.70;;
5678;SDS011;2862;52.560;13.566;2022-10-22T09:35:02;62.37;;;30.17;;
5678;SDS011;2862;52.560;13.566;2022-10-22T09:45:14;64.63;;;28.87;;
5678;SDS011;2862;52.560;13.566;2022-10-22T09:55:22;38.23;;;18.17;;
5678;SDS011;2862;52.560;13.566;2022-10-22T10:05:27;37.50;;;16.70;;
5678;SDS011;2862;52.560;13.566;2022-10-22T10:15:36;37.63;;;17.60;;
5678;SDS011;2862;52.560;13.566;2022-10-22T10:25:47;39.60;;;16.80;;
5678;SDS011;2862;52.560;13.566;2022-10-22T10:35:57;36.97;;;16.47;;
5678;SDS011;2862;52.560;13.566;2022-10-22T10:46:09;46.67;;;19.50;;
5678;SDS011;2862;52.560;13.566;2022-10-22T10:56:31;40.57;;;17.67;;
5678;SDS011;2862;52.560;13.566;2022-10-22T11:06:40;51.00;;;22.43;;
5678;SDS011;2862;52.560;13.566;2022-10-22T11:16:47;46.87;;;21.23;;
5678;SDS011;2862;52.560;13.566;2022-10-22T11:26:55;46.80;;;21.13;;
5678;SDS011;2862;52.560;13.566;2022-10-22T11:37:05;47.43;;;20.70;;
5678;SDS011;2862;52.560;13.566;2022-10-22T11:47:14;50.40;;;20.57;;
5678;SDS011;2862;52.560;13.566;2022-10-22T11:57:24;43.90;;;19.00;;
5678;SDS011;2862;52.560;13.566;2022-10-22T12:07:30;66.00;;;30.53;;
5678;SDS011;2862;52.560;13.566;2022-10-22T12:17:36;47.27;;;21.37;;
5678;SDS011;2862;52.560;13.566;2022-10-22T12:27:40;42.70;;;18.27;;
5678;SDS011;2862;52.560;13.566;2022-10-22T12:37:47;37.80;;;19.07;;
5678;SDS011;2862;52.560;13.566;2022-10-22T12:47:51;34.17;;;16.00;;
5678;SDS011;2862;52.560;13.566;2022-10-22T12:58:00;30.23;;;13.37;;
5678;SDS011;2862;52.560;13.566;2022-10-22T13:08:08;36.87;;;12.47;;
5678;SDS011;2862;52.560;13.566;2022-10-22T13:18:17;31.30;;;9.47;;
5678;SDS011;2862;52.560;13.566;2022-10-22T13:28:21;47.10;;;21.23;;
5678;SDS011;2862;52.560;13.566;2022-10-22T13:38:27;23.80;;;7.37;;
5678;SDS011;2862;52.560;13.566;2022-10-22T13:48:31;28.27;;;9.17;;
5678;SDS011;2862;52.560;13.566;2022-10-22T13:58:35;36.07;;;14.77;;
5678;SDS011;2862;52.560;13.566;2022-10-22T14:08:43;22.33;;;2.30;;
5678;SDS011;2862;52.560;13.566;2022-10-22T14:18:52;19.93;;;3.70;;
5678;SDS011;2862;52.560;13.566;2022-10-22T14:29:00;23.93;;;2.70;;
5678;SDS011;2862;52.560;13.566;2022-10-22T14:39:10;22.80;;;2.50;;
5678;SDS011;2862;52.560;13.566;2022-10-22T14:49:15;25.20;;;3.20;;
5678;SDS011;2862;52.560;13.566;2022-10-22T14:59:20;23.83;;;3.03;;
5678;SDS011;2862;52.560;13.566;2022-10-22T15:09:29;24.90;;;1.67;;
5678;SDS011;2862;52.560;13.566;2022-10-22T15:19:34;22.03;;;1.83;;
5678;SDS011;2862;52.560;13.566;2022-10-22T15:29:42;18.83;;;2.30;;
5678;SDS011;2862;52.560;13.566;2022-10-22T15:40:08;21.53;;;2.03;;
5678;SDS011;2862;52.560;13.566;2022-10-22T15:50:12;19.87;;;2.67;;
5678;SDS011;2862;52.560;13.566;2022-10-22T16:00:17;22.53;;;2.40;;
5678;SDS011;2862;52.560;13.566;2022-10-22T16:10:26;23.27;;;3.87;;
5678;SDS011;2862;52.560;13.566;2022-10-22T16:20:32;20.90;;;3.60;;
5678;SDS011;2862;52.560;13.566;2022-10-22T16:30:40;23.70;;;5.40;;
5678;SDS011;2862;52.560;13.566;2022-10-22T16:40:44;28.10;;;5.30;;
5678;SDS011;2862;52.560;13.566;2022-10-22T16:50:47;28.20;;;5.90;;
5678;SDS011;2862;52.560;13.566;2022-10-22T17:00:52;31.77;;;6.10;;
5678;SDS011;2862;52.560;13.566;2022-10-22T17:10:55;30.13;;;6.00;;
5678;SDS011;2862;52.560;13.566;2022-10-22T17:20:59;27.77;;;8.20;;
5678;SDS011;2862;52.560;13.566;2022-10-22T17:31:03;36.97;;;8.50;;
5678;SDS011;2862;52.560;13.566;2022-10-22T17:41:09;34.03;;;7.60;;
5678;SDS011;2862;52.560;13.566;2022-10-22T17:51:19;32.93;;;8.80;;
5678;SDS011;2862;52.560;13.566;2022-10-22T18:01:25;28.57;;;7.33;;
5678;SDS011;2862;52.560;13.566;2022-10-22T18:11:31;38.90;;;12.13;;
5678;SDS011;2862;52.560;13.566;2022-10-22T18:21:37;32.07;;;8.67;;
5678;SDS011;2862;52.560;13.566;2022-10-22T18:31:40;32.13;;;9.13;;
5678;SDS011;2862;52.560;13.566;2022-10-22T18:41:47;29.13;;;8.53;;
5678;SDS011;2862;52.560;13.566;2022-10-22T18:51:50;28.00;;;8.03;;
5678;SDS011;2862;52.560;13.566;2022-10-22T19:01:55;28.27;;;7.80;;
5678;SDS011;2862;52.560;13.566;2022-10-22T19:12:00;45.60;;;8.20;;
5678;SDS011;2862;52.560;13.566;2022-10-22T19:22:04;28.03;;;6.93;;
5678;SDS011;2862;52.560;13.566;2022-10-22T19:32:07;41.27;;;16.10;;
5678;SDS011;2862;52.560;13.566;2022-10-22T19:42:11;37.20;;;9.77;;
5678;SDS011;2862;52.560;13.566;2022-10-22T19:52:15;32.80;;;10.40;;
5678;SDS011;2862;52.560;13.566;2022-10-22T20:02:19;36.80;;;11.40;;
5678;SDS011;2862;52.560;13.566;2022-10-22T20:12:22;34.70;;;10.83;;
5678;SDS011;2862;52.560;13.566;2022-10-22T20:22:26;30.63;;;8.53;;
5678;SDS011;2862;52.560;13.566;2022-10-22T20:32:29;31.20;;;11.03;;
5678;SDS011;2862;52.560;13.566;2022-10-22T20:42:33;20.00;;;5.07;;
5678;SDS011;2862;52.560;13.566;2022-10-22T20:52:36;22.17;;;6.30;;
5678;SDS011;2862;52.560;13.566;2022-10-22T21:02:40;17.50;;;3.10;;
5678;SDS011;2862;52.560;13.566;2022-10-22T21:12:43;23.83;;;2.80;;
5678;SDS011;2862;52.560;13.566;2022-10-22T21:22:47;17.17;;;2.07;;
5678;SDS011;2862;52.560;13.566;2022-10-22T21:32:50;18.03;;;2.20;;
5678;SDS011;2862;52.560;13.566;2022-10-22T21:42:54;19.53;;;1.93;;
5678;SDS011;2862;52.560;13.566;2022-10-22T21:52:57;17.30;;;2.10;;
5678;SDS011;2862;52.560;13.566;2022-10-22T22:03:01;19.00;;;2.57;;
5678;SDS011;2862;52.560;13.566;2022-10-22T22:13:07;20.53;;;2.40;;
5678;SDS011;2862;52.560;13.566;2022-10-22T22:23:12;28.17;;;5.17;;
5678;SDS011;2862;52.560;13.566;2022-10-22T22:33:15;20.97;;;3.80;;
5678;SDS011;2862;52.560;13.566;2022-10-22T22:43:20;25.47;;;5.60;;
5678;SDS011;2862;52.560;13.566;2022-10-22T22:53:23;21.03;;;3.97;;
5678;SDS011;2862;52.560;13.566;2022-10-22T23:03:27;25.00;;;4.70;;
5678;SDS011;2862;52.560;13.566;2022-10-22T23:13:30;17.93;;;3.40;;
5678;SDS011;2862;52.560;13.566;2022-10-22T23:23:35;26.13;;;6.53;;
5678;SDS011;2862;52.560;13.566;2022-10-22T23:33:38;22.63;;;4.63;;
5678;SDS011;2862;52.560;13.566;2022-10-22T23:43:43;27.97;;;6.30;;
5678;SDS011;2862;52.560;13.566;2022-10-22T23:53:45;23.90;;;6.63;;
